Time;durP1;ratioP1;P1;durP2;ratioP2;P2;SDS_P1;SDS_P2;PMS_P1;PMS_P2;Temp;Humidity;BMP_temperature;BMP_pressure;BME280_temperature;BME280_humidity;BME280_pressure;Samples;Min_cycle;Max_cycle;Signal;HPM_P1;HPM_P2
2024/02/25 00:02:09;;;;;;;52.00;32.10;;;;;;;8.57;68.74;98524.99;232329;204;153276;-56
2024/02/25 00:07:12;;;;;;;52.10;30.50;;;;;;;8.51;68.73;98527.63;232286;201;138377;-56
2024/02/25 00:12:15;;;;;;;52.60;31.10;;;;;;;8.46;68.75;98533.09;232392;204;138744;-56
2024/02/25 00:17:19;;;;;;;49.30;30.40;;;;;;;8.41;68.78;98530.77;232358;204;154002;-56
2024/02/25 00:22:24;;;;;;;53.70;31.40;;;;;;;8.34;68.92;98527.46;232285;197;138315;-56
2024/02/25 00:27:27;;;;;;;48.80;30.90;;;;;;;8.27;69.00;98525.05;232259;201;138356;-56
2024/02/25 00:32:30;;;;;;;52.10;29.20;;;;;;;8.22;69.12;98525.52;232261;197;153848;-55
2024/02/25 00:37:33;;;;;;;46.60;28.10;;;;;;;8.18;68.92;98526.23;232115;201;138477;-55
2024/02/25 00:42:37;;;;;;;51.30;30.30;;;;;;;8.19;68.52;98527.83;232141;197;138544;-56
2024/02/25 00:47:40;;;;;;;49.80;30.00;;;;;;;8.13;68.32;98530.66;232304;204;153219;-57
2024/02/25 00:52:43;;;;;;;48.50;30.30;;;;;;;8.09;68.17;98522.59;232289;201;140932;-57
2024/02/25 00:57:47;;;;;;;52.10;30.10;;;;;;;7.99;68.03;98523.52;232233;204;138004;-61
2024/02/25 01:02:50;;;;;;;50.90;30.00;;;;;;;7.90;68.21;98519.15;232301;204;154796;-55
2024/02/25 01:07:53;;;;;;;46.30;29.90;;;;;;;7.86;68.39;98518.86;232159;197;137447;-56
2024/02/25 01:12:57;;;;;;;49.10;30.70;;;;;;;7.78;68.39;98522.45;232200;204;138201;-57
2024/02/25 01:18:00;;;;;;;47.10;30.00;;;;;;;7.76;68.57;98512.33;232268;204;153591;-55
2024/02/25 01:23:06;;;;;;;49.70;30.80;;;;;;;7.74;68.63;98510.89;232374;196;138389;-55
2024/02/25 01:28:09;;;;;;;54.70;31.40;;;;;;;7.70;68.47;98516.10;232116;199;137439;-56
2024/02/25 01:33:13;;;;;;;47.30;30.60;;;;;;;7.66;68.56;98500.77;231979;201;153900;-56
2024/02/25 01:38:16;;;;;;;47.80;30.80;;;;;;;7.60;68.67;98487.71;232211;201;137829;-57
2024/02/25 01:43:20;;;;;;;52.90;29.90;;;;;;;7.53;68.91;98491.29;232267;205;138252;-58
2024/02/25 01:48:24;;;;;;;49.10;27.40;;;;;;;7.48;69.10;98500.39;232240;198;153814;-60
2024/02/25 01:53:27;;;;;;;52.60;29.90;;;;;;;7.50;69.12;98506.30;232223;200;137692;-59
2024/02/25 01:58:31;;;;;;;51.10;30.50;;;;;;;7.51;69.16;98504.80;231985;202;138210;-59
2024/02/25 02:03:34;;;;;;;50.50;30.40;;;;;;;7.52;69.28;98501.58;232112;202;154560;-58
2024/02/25 02:08:38;;;;;;;49.80;31.80;;;;;;;7.52;69.17;98500.02;232084;204;138651;-57
2024/02/25 02:13:41;;;;;;;52.30;31.50;;;;;;;7.50;69.01;98496.24;232135;204;138019;-57
2024/02/25 02:18:47;;;;;;;50.10;31.80;;;;;;;7.48;68.95;98497.59;232280;201;153197;-57
2024/02/25 02:23:53;;;;;;;59.10;32.40;;;;;;;7.42;68.85;98497.59;232141;204;138471;-58
2024/02/25 02:28:56;;;;;;;53.80;33.00;;;;;;;7.33;68.88;98507.97;232316;201;137784;-57
2024/02/25 02:33:59;;;;;;;51.10;31.50;;;;;;;7.25;68.64;98513.52;232280;204;153501;-59
2024/02/25 02:39:04;;;;;;;53.00;33.30;;;;;;;7.18;68.73;98518.22;232255;201;137764;-58
2024/02/25 02:44:07;;;;;;;52.70;32.60;;;;;;;7.09;68.86;98521.15;231956;204;138644;-58
2024/02/25 02:49:10;;;;;;;53.30;33.70;;;;;;;7.03;68.99;98521.17;232280;201;153370;-58
2024/02/25 02:54:14;;;;;;;51.40;31.50;;;;;;;6.97;68.98;98520.27;232321;204;138044;-57
2024/02/25 02:59:17;;;;;;;51.20;31.00;;;;;;;6.92;68.92;98523.92;232454;198;138484;-57
2024/02/25 03:04:20;;;;;;;51.10;31.90;;;;;;;6.89;68.91;98533.23;232193;200;153400;-57
2024/02/25 03:09:24;;;;;;;49.40;31.10;;;;;;;6.87;69.08;98542.98;232217;201;138080;-58
2024/02/25 03:14:27;;;;;;;52.40;31.10;;;;;;;6.86;69.06;98543.40;232275;204;137654;-58
2024/02/25 03:19:31;;;;;;;53.40;32.10;;;;;;;6.85;68.84;98542.98;232295;197;153074;-58
2024/02/25 03:24:36;;;;;;;56.80;31.10;;;;;;;6.81;68.83;98545.83;232294;204;137462;-59
2024/02/25 03:29:40;;;;;;;50.80;30.40;;;;;;;6.79;68.62;98546.13;232240;204;138510;-58
2024/02/25 03:34:43;;;;;;;54.40;30.90;;;;;;;6.74;68.54;98554.31;232369;201;153838;-58
2024/02/25 03:39:46;;;;;;;47.00;30.20;;;;;;;6.63;68.80;98558.98;232259;197;138487;-58
2024/02/25 03:44:50;;;;;;;56.40;30.90;;;;;;;6.58;68.83;98561.18;232356;204;137702;-58
2024/02/25 03:49:53;;;;;;;53.50;32.30;;;;;;;6.54;68.85;98556.10;232331;204;153298;-59
2024/02/25 03:54:56;;;;;;;53.90;30.90;;;;;;;6.47;68.93;98555.08;232317;204;137346;-57
2024/02/25 03:59:59;;;;;;;48.60;29.60;;;;;;;6.40;69.04;98562.82;232383;204;137998;-58
2024/02/25 04:05:07;;;;;;;44.70;28.30;;;;;;;6.32;69.19;98563.23;232458;204;153040;-57
2024/02/25 04:10:11;;;;;;;53.60;29.20;;;;;;;6.29;69.37;98558.29;232292;200;138303;-56
2024/02/25 04:15:19;;;;;;;50.40;30.70;;;;;;;6.34;69.48;98555.57;232310;204;138162;-57
2024/02/25 04:20:22;;;;;;;47.40;29.70;;;;;;;6.39;69.11;98547.86;232352;197;153008;-57
2024/02/25 04:25:25;;;;;;;52.10;30.40;;;;;;;6.40;68.97;98547.84;232421;204;138020;-57
2024/02/25 04:30:29;;;;;;;48.50;29.00;;;;;;;6.40;68.95;98549.27;232276;201;138248;-57
2024/02/25 04:35:32;;;;;;;47.90;28.60;;;;;;;6.39;68.84;98543.99;232546;204;153757;-56
2024/02/25 04:40:35;;;;;;;47.70;30.10;;;;;;;6.33;68.71;98543.84;232315;201;138248;-55
2024/02/25 04:45:38;;;;;;;47.40;29.60;;;;;;;6.27;68.81;98544.86;232427;204;138164;-57
2024/02/25 04:50:42;;;;;;;54.00;29.80;;;;;;;6.24;68.69;98550.11;232374;201;153461;-55
2024/02/25 04:55:45;;;;;;;47.60;29.40;;;;;;;6.19;68.87;98557.42;232269;204;154302;-57
2024/02/25 05:00:48;;;;;;;45.00;28.00;;;;;;;6.18;68.70;98557.30;232149;202;137896;-56
2024/02/25 05:05:51;;;;;;;54.50;28.90;;;;;;;6.13;68.59;98557.39;232350;201;153195;-57
2024/02/25 05:10:54;;;;;;;44.70;27.80;;;;;;;6.05;68.65;98559.41;232419;197;139800;-57
2024/02/25 05:15:58;;;;;;;42.40;27.30;;;;;;;6.02;68.59;98566.73;232386;204;138730;-58
2024/02/25 05:21:02;;;;;;;47.50;29.80;;;;;;;6.03;68.55;98576.20;232131;204;153216;-58
2024/02/25 05:26:05;;;;;;;47.70;29.60;;;;;;;6.04;68.83;98568.06;232222;198;138635;-58
2024/02/25 05:31:13;;;;;;;51.70;30.50;;;;;;;5.99;68.83;98582.04;232370;204;137810;-57
2024/02/25 05:36:20;;;;;;;42.00;27.70;;;;;;;5.96;69.21;98573.02;232355;204;154669;-59
2024/02/25 05:41:24;;;;;;;47.70;30.30;;;;;;;5.94;69.77;98586.69;232204;196;137645;-58
2024/02/25 05:46:27;;;;;;;44.80;29.00;;;;;;;5.99;69.83;98591.05;232184;204;138484;-58
2024/02/25 05:51:31;;;;;;;47.60;28.80;;;;;;;6.00;69.82;98587.79;232372;204;153007;-58
2024/02/25 05:56:34;;;;;;;46.20;29.30;;;;;;;5.97;69.76;98584.61;232277;204;138117;-57
2024/02/25 06:01:38;;;;;;;45.60;28.40;;;;;;;5.95;69.75;98583.48;232324;200;138288;-57
2024/02/25 06:06:43;;;;;;;44.20;25.40;;;;;;;5.92;69.82;98582.19;232339;201;154105;-56
2024/02/25 06:11:48;;;;;;;42.40;26.30;;;;;;;5.88;69.82;98589.05;232330;201;138940;-57
2024/02/25 06:16:51;;;;;;;43.00;27.50;;;;;;;5.90;69.96;98581.59;232509;200;137972;-59
2024/02/25 06:21:54;;;;;;;44.10;28.80;;;;;;;5.99;70.04;98581.54;232340;201;153196;-58
2024/02/25 06:26:58;;;;;;;48.00;29.10;;;;;;;6.04;70.10;98586.02;232298;204;138368;-58
2024/02/25 06:32:02;;;;;;;46.20;29.10;;;;;;;6.07;70.06;98582.67;231835;198;138494;-56
2024/02/25 06:37:05;;;;;;;40.50;28.40;;;;;;;6.10;70.09;98581.32;231885;198;153885;-58
2024/02/25 06:42:09;;;;;;;45.50;29.50;;;;;;;6.13;70.14;98576.90;232075;201;138281;-58
2024/02/25 06:47:12;;;;;;;43.70;29.20;;;;;;;6.17;70.36;98570.02;232119;205;139938;-57
2024/02/25 06:52:15;;;;;;;47.90;29.80;;;;;;;6.19;70.32;98564.98;231945;201;155048;-57
2024/02/25 06:57:18;;;;;;;46.60;28.80;;;;;;;6.23;70.51;98567.93;231881;198;137502;-58
2024/02/25 07:02:21;;;;;;;47.50;28.20;;;;;;;6.31;70.47;98579.34;232023;205;138460;-59
2024/02/25 07:07:24;;;;;;;47.10;29.40;;;;;;;6.43;70.63;98578.89;231862;202;153440;-57
2024/02/25 07:12:30;;;;;;;47.90;31.60;;;;;;;6.58;70.66;98573.67;231944;198;138765;-58
2024/02/25 07:17:33;;;;;;;49.90;33.20;;;;;;;6.75;70.78;98579.98;232077;205;138464;-58
2024/02/25 07:22:36;;;;;;;49.80;32.10;;;;;;;6.95;70.47;98578.19;231808;202;153180;-56
2024/02/25 07:27:40;;;;;;;50.70;32.70;;;;;;;7.08;70.19;98576.23;231891;197;139109;-58
2024/02/25 07:32:43;;;;;;;47.90;33.00;;;;;;;7.17;70.03;98567.27;231831;198;138677;-54
2024/02/25 07:37:50;;;;;;;52.20;34.30;;;;;;;7.26;69.95;98556.52;231795;197;153009;-54
2024/02/25 07:42:53;;;;;;;51.40;33.90;;;;;;;7.39;69.83;98554.59;231839;202;139500;-53
2024/02/25 07:47:56;;;;;;;54.60;33.70;;;;;;;7.47;69.80;98546.55;231877;198;138876;-53
2024/02/25 07:52:59;;;;;;;58.40;35.90;;;;;;;7.54;70.01;98536.77;231884;197;153246;-53
2024/02/25 07:58:05;;;;;;;57.20;35.60;;;;;;;7.62;70.06;98532.29;231759;198;137974;-54
2024/02/25 08:03:09;;;;;;;53.20;33.50;;;;;;;7.68;70.28;98524.11;231788;205;138607;-60
2024/02/25 08:08:13;;;;;;;54.20;33.50;;;;;;;7.79;70.13;98519.05;231844;198;153542;-51
2024/02/25 08:13:17;;;;;;;51.70;34.60;;;;;;;8.01;70.26;98506.13;231823;197;138296;-55
2024/02/25 08:18:20;;;;;;;53.50;35.60;;;;;;;8.18;70.08;98501.35;231835;198;138090;-55
2024/02/25 08:23:24;;;;;;;54.90;34.30;;;;;;;8.40;70.11;98489.95;231959;197;153902;-55
2024/02/25 08:28:28;;;;;;;53.00;34.20;;;;;;;8.60;70.19;98482.92;231804;197;141033;-54
2024/02/25 08:33:32;;;;;;;50.10;34.70;;;;;;;8.78;69.93;98488.46;231766;205;143041;-55
2024/02/25 08:38:39;;;;;;;51.60;36.60;;;;;;;8.95;69.78;98482.58;231767;205;153225;-54
2024/02/25 08:43:42;;;;;;;58.20;41.30;;;;;;;9.15;69.66;98477.43;231774;198;138522;-53
2024/02/25 08:48:46;;;;;;;57.30;40.50;;;;;;;9.35;69.15;98473.99;231829;198;138355;-54
2024/02/25 08:53:49;;;;;;;56.10;37.30;;;;;;;9.49;68.43;98475.19;231976;201;152947;-53
2024/02/25 08:58:53;;;;;;;55.30;35.80;;;;;;;9.66;68.07;98465.33;231855;202;138808;-52
2024/02/25 09:03:56;;;;;;;35.40;22.50;;;;;;;9.83;67.70;98471.83;231633;205;138535;-54
2024/02/25 09:09:02;;;;;;;34.70;23.80;;;;;;;10.04;66.83;98469.34;231676;199;155278;-53
2024/02/25 09:14:06;;;;;;;37.80;26.00;;;;;;;10.27;66.27;98465.77;231774;205;138408;-55
2024/02/25 09:19:09;;;;;;;35.40;24.50;;;;;;;10.47;65.95;98466.55;231817;197;142751;-54
2024/02/25 09:24:13;;;;;;;35.00;24.90;;;;;;;10.64;65.58;98455.05;231643;197;154462;-55
2024/02/25 09:29:20;;;;;;;34.20;21.50;;;;;;;10.85;65.32;98453.29;231847;197;137797;-53
2024/02/25 09:34:26;;;;;;;26.00;15.30;;;;;;;11.16;64.68;98447.88;231829;202;138114;-54
2024/02/25 09:39:30;;;;;;;23.70;15.30;;;;;;;11.44;64.30;98444.03;231749;197;153162;-55
2024/02/25 09:44:37;;;;;;;18.70;10.30;;;;;;;11.65;63.36;98442.55;231642;198;138631;-53
2024/02/25 09:49:40;;;;;;;17.40;10.30;;;;;;;11.94;62.65;98439.38;231653;199;138380;-54
2024/02/25 09:54:46;;;;;;;12.50;9.00;;;;;;;12.13;61.80;98445.73;231703;201;154274;-54
2024/02/25 09:59:49;;;;;;;16.40;10.50;;;;;;;12.30;61.52;98443.09;231778;201;138426;-55
2024/02/25 10:04:53;;;;;;;14.10;8.00;;;;;;;12.49;61.35;98430.92;231871;205;137901;-55
2024/02/25 10:09:56;;;;;;;16.30;7.90;;;;;;;12.67;60.41;98428.73;231653;202;153912;-55
2024/02/25 10:15:00;;;;;;;13.30;7.70;;;;;;;12.90;59.91;98417.48;231732;197;138276;-54
2024/02/25 10:20:09;;;;;;;12.20;7.50;;;;;;;13.12;58.91;98405.14;231429;205;138701;-55
2024/02/25 10:25:13;;;;;;;11.80;7.70;;;;;;;13.35;58.63;98392.73;231788;205;153566;-52
2024/02/25 10:30:16;;;;;;;14.50;8.20;;;;;;;13.61;58.32;98370.76;231628;197;138918;-54
2024/02/25 10:35:20;;;;;;;11.90;7.70;;;;;;;13.91;57.82;98365.73;231872;202;138964;-54
2024/02/25 10:40:23;;;;;;;9.00;7.50;;;;;;;14.17;56.57;98351.15;231773;197;153651;-54
2024/02/25 10:45:28;;;;;;;12.00;6.60;;;;;;;14.48;56.01;98344.34;231681;205;138064;-52
2024/02/25 10:50:31;;;;;;;7.20;4.50;;;;;;;14.80;54.07;98344.30;231723;202;138454;-53
2024/02/25 10:55:36;;;;;;;7.20;4.10;;;;;;;15.15;52.64;98343.40;231807;198;153378;-53
2024/02/25 11:00:40;;;;;;;6.40;4.20;;;;;;;15.44;50.90;98335.00;231660;205;138143;-55
2024/02/25 11:05:43;;;;;;;7.50;4.40;;;;;;;15.67;49.88;98323.61;231754;198;138203;-54
2024/02/25 11:10:47;;;;;;;8.10;3.90;;;;;;;15.85;48.68;98315.60;231892;205;152924;-54
2024/02/25 11:15:50;;;;;;;5.60;3.70;;;;;;;16.03;47.20;98307.31;231812;201;139490;-55
2024/02/25 11:21:10;;;;;;;6.50;3.50;;;;;;;16.16;46.41;98298.46;231802;197;138244;-55
2024/02/25 11:26:34;;;;;;;6.70;3.60;;;;;;;16.35;45.75;98286.98;231758;201;153466;-54
2024/02/25 11:31:52;;;;;;;5.20;3.00;;;;;;;16.49;43.64;98279.73;231735;205;137513;-53
2024/02/25 11:37:00;;;;;;;5.00;3.50;;;;;;;16.55;43.13;98276.95;231645;198;138842;-53
2024/02/25 11:42:05;;;;;;;4.70;2.70;;;;;;;16.67;42.61;98260.16;231744;205;154620;-55
2024/02/25 11:47:08;;;;;;;8.00;3.80;;;;;;;16.78;42.52;98255.38;231866;198;137560;-55
2024/02/25 11:52:12;;;;;;;5.40;3.90;;;;;;;16.98;41.45;98251.06;231741;198;137983;-55
2024/02/25 11:57:17;;;;;;;7.50;2.30;;;;;;;17.18;40.03;98253.41;231839;198;153161;-55
2024/02/25 12:02:21;;;;;;;5.10;2.60;;;;;;;17.35;38.64;98247.79;231714;203;137697;-54
2024/02/25 12:07:24;;;;;;;4.60;2.70;;;;;;;17.33;38.63;98244.91;231791;198;138626;-55
2024/02/25 12:12:27;;;;;;;6.50;3.10;;;;;;;17.34;39.68;98240.14;231801;198;153022;-55
2024/02/25 12:17:31;;;;;;;5.90;3.20;;;;;;;17.43;39.64;98234.76;231775;205;137546;-56
2024/02/25 12:22:34;;;;;;;5.50;3.30;;;;;;;17.46;40.12;98228.19;231701;205;137798;-57
2024/02/25 12:27:38;;;;;;;7.80;3.40;;;;;;;17.41;40.33;98226.05;231737;198;154280;-55
2024/02/25 12:32:41;;;;;;;7.90;3.40;;;;;;;17.36;40.29;98218.07;231769;202;138024;-54
2024/02/25 12:37:45;;;;;;;6.70;4.00;;;;;;;17.26;40.60;98217.34;231802;198;153998;-54
2024/02/25 12:42:48;;;;;;;9.90;6.20;;;;;;;17.10;41.13;98213.30;231894;197;154795;-58
2024/02/25 12:47:53;;;;;;;10.90;6.50;;;;;;;16.90;43.11;98208.80;231752;205;137702;-56
2024/02/25 12:52:56;;;;;;;11.50;6.20;;;;;;;16.73;44.14;98208.50;231958;198;137811;-58
2024/02/25 12:58:00;;;;;;;10.40;6.40;;;;;;;16.52;44.85;98200.44;231772;198;153206;-59
2024/02/25 13:03:04;;;;;;;9.10;5.50;;;;;;;16.32;45.40;98193.86;231650;198;138594;-59
2024/02/25 13:08:08;;;;;;;8.90;5.00;;;;;;;16.18;45.62;98186.96;231823;198;137503;-58
2024/02/25 13:13:12;;;;;;;8.30;5.00;;;;;;;16.04;45.83;98184.74;231791;205;153696;-59
2024/02/25 13:18:15;;;;;;;8.80;5.30;;;;;;;15.93;46.35;98182.46;231782;205;137062;-63
2024/02/25 13:23:18;;;;;;;8.00;4.70;;;;;;;15.86;46.61;98182.31;231683;197;138632;-58
2024/02/25 13:28:22;;;;;;;6.80;3.90;;;;;;;15.80;46.93;98176.18;231790;198;153120;-61
2024/02/25 13:33:26;;;;;;;6.30;3.60;;;;;;;15.76;46.75;98170.87;231729;197;138697;-61
2024/02/25 13:38:30;;;;;;;6.50;3.50;;;;;;;15.72;46.66;98167.23;231705;202;138629;-62
2024/02/25 13:43:36;;;;;;;6.70;3.50;;;;;;;15.70;46.84;98164.09;231776;198;153779;-62
2024/02/25 13:48:39;;;;;;;7.20;3.50;;;;;;;15.71;46.55;98164.43;231857;198;138456;-61
2024/02/25 13:53:43;;;;;;;5.20;2.80;;;;;;;15.72;46.21;98167.92;231834;198;141178;-61
2024/02/25 13:58:47;;;;;;;8.00;3.00;;;;;;;15.74;45.65;98169.23;231874;197;154086;-61
2024/02/25 14:03:50;;;;;;;6.80;2.50;;;;;;;15.74;44.95;98169.13;231641;202;138397;-61
2024/02/25 14:08:55;;;;;;;6.50;2.90;;;;;;;15.76;44.63;98170.16;231831;197;139192;-60
2024/02/25 14:13:59;;;;;;;5.10;3.10;;;;;;;15.79;44.87;98163.44;231708;197;153047;-59
2024/02/25 14:19:02;;;;;;;4.90;2.80;;;;;;;15.78;44.80;98162.80;231702;202;137988;-61
2024/02/25 14:24:06;;;;;;;5.30;2.80;;;;;;;15.77;43.84;98165.63;231715;205;138943;-61
2024/02/25 14:29:12;;;;;;;9.10;3.20;;;;;;;15.74;43.03;98163.44;231767;201;153873;-60
2024/02/25 14:34:16;;;;;;;;;;;;;;;15.72;42.36;98161.77;231676;202;139250;-60
2024/02/25 14:39:20;;;;;;;5.90;2.50;;;;;;;15.70;41.61;98154.16;231794;198;137545;-60
2024/02/25 14:44:23;;;;;;;6.80;2.50;;;;;;;15.65;40.68;98155.86;231585;198;154168;-61
2024/02/25 14:49:26;;;;;;;5.40;2.70;;;;;;;15.61;40.60;98153.20;231692;198;137110;-61
2024/02/25 14:54:30;;;;;;;5.10;2.90;;;;;;;15.58;40.89;98143.78;231846;197;138152;-61
2024/02/25 14:59:34;;;;;;;5.00;2.50;;;;;;;15.55;41.20;98140.23;232111;206;152973;-59
2024/02/25 15:04:38;;;;;;;3.80;2.50;;;;;;;15.52;41.08;98147.46;231774;199;138156;-60
2024/02/25 15:09:42;;;;;;;4.40;2.20;;;;;;;15.45;41.16;98142.79;231783;199;137137;-61
2024/02/25 15:14:46;;;;;;;2.50;1.50;;;;;;;15.41;40.10;98140.88;231765;198;153976;-60
2024/02/25 15:19:50;;;;;;;4.80;1.40;;;;;;;15.34;39.35;98136.25;231710;197;140875;-61
2024/02/25 15:24:53;;;;;;;1.70;1.10;;;;;;;15.30;38.87;98133.33;231808;198;138172;-60
2024/02/25 15:29:56;;;;;;;2.20;0.80;;;;;;;15.24;38.42;98130.27;231728;205;153929;-59
2024/02/25 15:35:00;;;;;;;2.00;1.00;;;;;;;15.20;38.13;98136.80;231852;197;138436;-60
2024/02/25 15:40:05;;;;;;;3.10;1.00;;;;;;;15.18;38.26;98134.85;231734;197;138115;-61
2024/02/25 15:45:09;;;;;;;5.90;1.30;;;;;;;15.15;38.08;98130.80;231750;199;153851;-59
2024/02/25 15:50:13;;;;;;;3.70;1.00;;;;;;;15.13;38.02;98131.90;231691;198;138108;-61
2024/02/25 15:55:17;;;;;;;4.50;1.10;;;;;;;15.10;38.05;98132.40;231831;198;138920;-60
2024/02/25 16:00:21;;;;;;;3.00;1.20;;;;;;;15.07;38.01;98134.38;231846;197;153724;-60
2024/02/25 16:05:24;;;;;;;7.10;1.30;;;;;;;15.05;38.15;98140.84;231805;197;138317;-59
2024/02/25 16:10:28;;;;;;;6.20;1.10;;;;;;;15.03;38.23;98142.14;231721;198;137636;-60
2024/02/25 16:15:40;;;;;;;4.50;1.20;;;;;;;14.99;38.41;98147.10;231722;198;154506;-59
2024/02/25 16:20:43;;;;;;;6.60;1.50;;;;;;;14.94;38.40;98144.02;231774;197;137245;-61
2024/02/25 16:25:47;;;;;;;4.70;1.30;;;;;;;14.89;38.33;98138.83;231596;202;139029;-61
2024/02/25 16:30:50;;;;;;;4.90;1.50;;;;;;;14.83;38.57;98139.04;231794;197;153302;-60
2024/02/25 16:35:53;;;;;;;2.50;1.40;;;;;;;14.78;38.43;98137.30;231817;198;138526;-60
2024/02/25 16:40:59;;;;;;;2.60;1.30;;;;;;;14.76;38.62;98133.40;231876;198;137633;-60
2024/02/25 16:46:02;;;;;;;3.20;1.80;;;;;;;14.73;38.70;98134.63;231795;198;153725;-60
2024/02/25 16:51:06;;;;;;;4.00;1.60;;;;;;;14.65;39.33;98140.70;231732;205;138145;-60
2024/02/25 16:56:09;;;;;;;4.00;1.50;;;;;;;14.58;39.88;98144.06;231635;198;137748;-66
2024/02/25 17:01:13;;;;;;;5.30;1.80;;;;;;;14.55;39.63;98148.09;231804;198;155486;-65
2024/02/25 17:06:16;;;;;;;3.70;1.50;;;;;;;14.48;39.31;98148.35;231548;202;138117;-64
2024/02/25 17:11:19;;;;;;;5.80;1.70;;;;;;;14.41;39.42;98145.36;231908;197;138521;-61
2024/02/25 17:16:23;;;;;;;3.00;1.60;;;;;;;14.39;39.75;98138.98;231756;198;154677;-62
2024/02/25 17:21:30;;;;;;;2.50;1.50;;;;;;;14.36;39.61;98140.31;231793;202;137226;-61
2024/02/25 17:26:33;;;;;;;8.50;1.60;;;;;;;14.35;39.88;98134.20;231652;205;138160;-62
2024/02/25 17:31:38;;;;;;;292.10;244.30;;;;;;;14.33;42.09;98133.84;231819;197;153790;-57
2024/02/25 17:36:43;;;;;;;7.20;4.40;;;;;;;14.64;43.18;98132.98;231727;205;138123;-55
2024/02/25 17:41:46;;;;;;;4.60;2.60;;;;;;;14.60;40.47;98143.63;231815;197;138164;-53
2024/02/25 17:46:49;;;;;;;6.50;2.30;;;;;;;14.50;40.87;98144.79;231862;197;153290;-57
2024/02/25 17:51:54;;;;;;;4.80;2.00;;;;;;;14.38;41.13;98147.45;231610;198;140720;-57
2024/02/25 17:56:57;;;;;;;5.00;2.10;;;;;;;14.30;40.93;98141.77;231574;199;138566;-57
2024/02/25 18:02:01;;;;;;;5.60;2.10;;;;;;;14.25;40.62;98144.21;231935;199;156569;-58
2024/02/25 18:07:04;;;;;;;5.10;2.20;;;;;;;14.20;40.80;98135.39;231686;205;138055;-58
2024/02/25 18:12:09;;;;;;;6.50;2.40;;;;;;;14.14;40.85;98136.77;231635;197;137576;-58
2024/02/25 18:17:12;;;;;;;316.90;242.70;;;;;;;14.09;41.18;98135.97;231873;198;153395;-58
2024/02/25 18:22:19;;;;;;;44.90;25.90;;;;;;;14.13;42.26;98132.48;231688;197;138782;-56
2024/02/25 18:27:22;;;;;;;10.80;3.60;;;;;;;14.14;41.95;98130.95;231568;198;138415;-55
2024/02/25 18:32:26;;;;;;;11.90;3.70;;;;;;;14.02;42.86;98128.61;231521;197;153257;-57
2024/02/25 18:37:29;;;;;;;7.20;3.30;;;;;;;13.84;44.07;98134.89;231654;198;141207;-55
2024/02/25 18:42:32;;;;;;;12.30;3.60;;;;;;;13.66;44.64;98135.76;231645;197;138193;-56
2024/02/25 18:47:35;;;;;;;10.20;3.30;;;;;;;13.53;44.31;98139.44;231752;198;153890;-55
2024/02/25 18:52:39;;;;;;;13.70;5.40;;;;;;;13.44;44.39;98143.39;231634;205;140855;-57
2024/02/25 18:57:42;;;;;;;29.30;13.80;;;;;;;13.36;45.72;98135.74;231703;198;141266;-57
2024/02/25 19:02:46;;;;;;;12.80;3.90;;;;;;;13.29;45.48;98136.25;231605;201;153864;-56
2024/02/25 19:07:51;;;;;;;10.20;3.30;;;;;;;13.16;46.57;98144.59;231615;197;138220;-57
2024/02/25 19:13:11;;;;;;;9.30;3.70;;;;;;;13.03;47.57;98146.79;231778;197;138540;-64
2024/02/25 19:18:25;;;;;;;16.90;3.70;;;;;;;12.91;48.16;98149.84;231688;202;153232;-61
2024/02/25 19:23:29;;;;;;;15.60;3.60;;;;;;;12.79;48.77;98152.21;231876;198;137456;-61
2024/02/25 19:28:34;;;;;;;13.10;3.60;;;;;;;12.69;49.07;98148.85;231695;197;138214;-68
2024/02/25 19:33:37;;;;;;;20.60;4.00;;;;;;;12.60;49.15;98148.18;231735;197;153145;-65
2024/02/25 19:38:41;;;;;;;12.20;4.10;;;;;;;12.47;49.12;98142.55;231686;198;138385;-63
2024/02/25 19:43:45;;;;;;;14.60;4.50;;;;;;;12.36;49.83;98133.84;231698;202;138320;-62
2024/02/25 19:48:48;;;;;;;13.40;4.00;;;;;;;12.24;50.38;98130.59;231752;202;154195;-64
2024/02/25 19:53:53;;;;;;;15.10;5.20;;;;;;;12.12;50.56;98131.61;231683;197;137350;-62
2024/02/25 19:58:57;;;;;;;20.90;5.30;;;;;;;11.93;50.00;98127.78;231861;198;138111;-63
2024/02/25 20:04:02;;;;;;;150.00;110.60;;;;;;;11.81;51.18;98131.91;231157;203;154090;-60
2024/02/25 20:09:08;;;;;;;55.40;20.50;;;;;;;12.00;52.97;98133.05;231770;198;138135;-65
2024/02/25 20:14:11;;;;;;;20.70;8.00;;;;;;;12.00;51.55;98130.96;231743;203;142800;-64
2024/02/25 20:19:15;;;;;;;16.30;5.30;;;;;;;11.84;52.32;98129.61;231721;198;153410;-61
2024/02/25 20:24:18;;;;;;;18.00;5.40;;;;;;;11.72;52.84;98129.70;231694;202;138451;-64
2024/02/25 20:29:22;;;;;;;19.90;5.70;;;;;;;11.66;53.47;98128.40;231913;198;138901;-64
2024/02/25 20:34:25;;;;;;;23.50;6.10;;;;;;;11.55;53.88;98128.88;231756;199;153773;-68
2024/02/25 20:39:29;;;;;;;19.30;6.50;;;;;;;11.47;53.99;98128.27;231727;197;137468;-62
2024/02/25 20:44:32;;;;;;;23.90;6.80;;;;;;;11.44;54.27;98123.77;231767;198;141224;-64
2024/02/25 20:49:35;;;;;;;19.60;7.00;;;;;;;11.40;53.99;98125.48;231764;197;153873;-61
2024/02/25 20:54:39;;;;;;;17.70;7.30;;;;;;;11.34;54.15;98121.75;231710;197;138919;-65
2024/02/25 20:59:42;;;;;;;20.00;7.30;;;;;;;11.30;55.17;98123.63;231770;197;138512;-65
2024/02/25 21:04:45;;;;;;;27.10;8.10;;;;;;;11.27;55.40;98125.62;232075;205;153201;-61
2024/02/25 21:09:50;;;;;;;25.40;8.80;;;;;;;11.26;55.58;98120.40;231757;201;138329;-61
2024/02/25 21:14:56;;;;;;;28.10;10.80;;;;;;;11.23;56.09;98120.09;231492;198;140579;-61
2024/02/25 21:19:59;;;;;;;;;;;;;;;11.21;56.34;98117.41;231803;198;153127;-60
2024/02/25 21:25:03;;;;;;;31.20;13.30;;;;;;;11.17;56.71;98122.55;231768;197;137320;-62
2024/02/25 21:30:07;;;;;;;36.40;14.60;;;;;;;11.13;57.09;98119.65;231746;198;138586;-60
2024/02/25 21:35:10;;;;;;;32.50;15.20;;;;;;;11.10;57.01;98116.38;231820;202;154660;-58
2024/02/25 21:40:14;;;;;;;30.70;16.30;;;;;;;11.06;57.50;98109.58;231741;198;138092;-58
2024/02/25 21:45:17;;;;;;;36.80;16.50;;;;;;;11.03;57.82;98105.30;231757;197;138887;-58
2024/02/25 21:50:20;;;;;;;34.80;15.90;;;;;;;11.04;58.06;98104.03;231765;198;154339;-57
2024/02/25 21:55:24;;;;;;;29.70;15.60;;;;;;;11.03;58.19;98105.02;231713;197;138530;-58
2024/02/25 22:00:28;;;;;;;29.50;16.10;;;;;;;10.99;58.49;98108.20;231746;205;138983;-58
2024/02/25 22:05:32;;;;;;;34.80;15.80;;;;;;;10.97;58.65;98112.02;231858;198;153180;-59
2024/02/25 22:10:36;;;;;;;28.90;15.50;;;;;;;10.92;58.51;98117.74;231671;197;139066;-61
2024/02/25 22:15:39;;;;;;;29.20;15.40;;;;;;;10.81;58.53;98112.08;231821;198;137880;-58
2024/02/25 22:20:42;;;;;;;27.40;14.10;;;;;;;10.78;59.34;98106.41;231562;199;153657;-58
2024/02/25 22:25:46;;;;;;;32.40;15.00;;;;;;;10.79;59.83;98110.29;231650;198;153788;-57
2024/02/25 22:30:49;;;;;;;31.10;15.30;;;;;;;10.79;60.13;98109.16;231777;197;138195;-57
2024/02/25 22:35:52;;;;;;;30.20;17.90;;;;;;;10.78;60.38;98105.23;231807;197;153016;-58
2024/02/25 22:40:55;;;;;;;35.00;19.10;;;;;;;10.73;60.24;98109.52;231885;197;137964;-57
2024/02/25 22:45:58;;;;;;;36.90;20.40;;;;;;;10.65;60.29;98106.71;231754;197;138382;-60
2024/02/25 22:51:02;;;;;;;37.70;19.90;;;;;;;10.59;60.48;98107.16;231782;198;155822;-61
2024/02/25 22:56:06;;;;;;;36.50;19.40;;;;;;;10.53;60.61;98112.96;231643;198;138721;-60
2024/02/25 23:01:10;;;;;;;42.50;19.70;;;;;;;10.51;60.76;98108.73;231705;198;138559;-61
2024/02/25 23:06:14;;;;;;;35.20;18.90;;;;;;;10.49;60.78;98105.19;231729;205;154542;-61
2024/02/25 23:11:17;;;;;;;44.40;20.20;;;;;;;10.44;61.20;98101.95;231808;197;137433;-61
2024/02/25 23:16:21;;;;;;;34.50;18.20;;;;;;;10.38;60.93;98105.09;231719;197;139378;-60
2024/02/25 23:21:24;;;;;;;41.30;19.60;;;;;;;10.34;60.96;98100.96;231789;205;153891;-61